Time;durP1;ratioP1;P1;durP2;ratioP2;P2;SDS_P1;SDS_P2;PMS_P1;PMS_P2;Temp;Humidity;BMP_temperature;BMP_pressure;BME280_temperature;BME280_humidity;BME280_pressure;Samples;Min_cycle;Max_cycle;Signal;HPM_P1;HPM_P2
2023/09/05 00:01:48;;;;;;;2.90;2.00;;;17.70;99.90;;;;;;5053292;28;20401;-71
2023/09/05 00:04:14;;;;;;;2.20;1.80;;;17.70;99.90;;;;;;5053419;28;20449;-71
2023/09/05 00:06:40;;;;;;;2.27;2.03;;;17.70;99.90;;;;;;5052919;28;20429;-72
2023/09/05 00:09:06;;;;;;;2.50;2.30;;;17.70;99.90;;;;;;5046867;28;20168;-71
2023/09/05 00:11:32;;;;;;;2.30;1.93;;;17.70;99.90;;;;;;5032995;28;20759;-72
2023/09/05 00:14:00;;;;;;;2.87;2.50;;;17.60;99.90;;;;;;5033249;28;20275;-70
2023/09/05 00:16:29;;;;;;;2.10;1.80;;;17.60;99.90;;;;;;5032829;28;20430;-72
2023/09/05 00:18:55;;;;;;;2.80;1.60;;;17.60;99.90;;;;;;5033226;28;20414;-70
2023/09/05 00:21:21;;;;;;;6.33;2.77;;;17.60;99.90;;;;;;5033112;28;20410;-70
2023/09/05 00:23:46;;;;;;;2.77;2.57;;;17.60;99.90;;;;;;5033200;28;20493;-70
2023/09/05 00:26:12;;;;;;;2.33;1.90;;;17.60;99.90;;;;;;5032799;28;20722;-71
2023/09/05 00:28:37;;;;;;;3.13;2.10;;;17.50;99.90;;;;;;5032934;28;20168;-71
2023/09/05 00:31:03;;;;;;;3.97;2.50;;;17.50;99.90;;;;;;5032611;28;20160;-71
2023/09/05 00:33:29;;;;;;;5.07;2.40;;;17.40;99.90;;;;;;5032647;28;20190;-71
2023/09/05 00:35:56;;;;;;;3.67;2.60;;;17.40;99.90;;;;;;5032564;28;20164;-71
2023/09/05 00:38:22;;;;;;;9.80;1.67;;;17.40;99.90;;;;;;5032814;28;20410;-71
2023/09/05 00:40:51;;;;;;;2.50;2.10;;;17.40;99.90;;;;;;5032528;28;20493;-71
2023/09/05 00:43:20;;;;;;;4.17;2.40;;;17.40;99.90;;;;;;5031828;28;20442;-71
2023/09/05 00:45:52;;;;;;;3.60;1.97;;;17.40;99.90;;;;;;5045771;28;20922;-71
2023/09/05 00:48:27;;;;;;;2.83;2.30;;;17.30;99.90;;;;;;5052586;28;20440;-71
2023/09/05 00:50:55;;;;;;;3.10;1.80;;;17.40;99.90;;;;;;5052833;28;20405;-71
2023/09/05 00:53:23;;;;;;;5.10;2.53;;;17.40;99.90;;;;;;5052617;28;20425;-71
2023/09/05 00:55:49;;;;;;;6.00;3.20;;;17.40;99.90;;;;;;5052254;28;20484;-72
2023/09/05 00:58:14;;;;;;;2.83;2.17;;;17.40;99.90;;;;;;5052393;28;20420;-71
2023/09/05 01:00:40;;;;;;;2.30;2.10;;;17.40;99.90;;;;;;5052666;28;20210;-70
2023/09/05 01:03:06;;;;;;;4.03;2.10;;;17.30;99.90;;;;;;5037945;28;20207;-70
2023/09/05 01:05:34;;;;;;;2.93;1.87;;;17.30;99.90;;;;;;5032206;28;20302;-72
2023/09/05 01:08:05;;;;;;;3.60;2.33;;;17.30;99.90;;;;;;5032197;28;20410;-70
2023/09/05 01:10:49;;;;;;;2.40;2.20;;;17.30;99.90;;;;;;5032148;28;20856;-71
2023/09/05 01:13:22;;;;;;;1.73;1.60;;;17.30;99.90;;;;;;5032166;28;20422;-71
2023/09/05 01:15:48;;;;;;;2.53;2.13;;;17.30;99.90;;;;;;5031958;28;20961;-71
2023/09/05 01:18:14;;;;;;;2.50;2.00;;;17.30;99.90;;;;;;5032151;28;20430;-71
2023/09/05 01:20:52;;;;;;;2.20;2.00;;;17.20;99.90;;;;;;5032080;28;20180;-71
2023/09/05 01:23:28;;;;;;;4.27;2.10;;;17.30;99.90;;;;;;5031540;28;20527;-70
2023/09/05 01:25:54;;;;;;;2.47;2.10;;;17.30;99.90;;;;;;5031771;28;20467;-71
2023/09/05 01:28:23;;;;;;;3.63;2.30;;;17.30;99.90;;;;;;5031994;28;20966;-71
2023/09/05 01:30:49;;;;;;;5.23;2.20;;;17.30;99.90;;;;;;5032168;28;20168;-71
2023/09/05 01:33:16;;;;;;;3.00;2.40;;;17.30;99.90;;;;;;5032024;28;20437;-70
2023/09/05 01:35:41;;;;;;;2.67;2.47;;;17.40;99.90;;;;;;5031767;28;20402;-70
2023/09/05 01:38:07;;;;;;;3.37;2.70;;;17.40;99.90;;;;;;5033843;28;20449;-71
2023/09/05 01:40:33;;;;;;;1.90;1.73;;;17.40;99.90;;;;;;5051856;28;20167;-72
2023/09/05 01:42:58;;;;;;;2.67;1.87;;;17.40;99.90;;;;;;5050074;28;20994;-71
2023/09/05 01:45:24;;;;;;;4.07;2.07;;;17.60;99.90;;;;;;5042601;28;20273;-70
2023/09/05 01:47:49;;;;;;;2.20;1.93;;;17.70;99.90;;;;;;5050023;28;20174;-71
2023/09/05 01:53:15;;;;;;;2.83;2.10;;;17.90;99.90;;;;;;5908978;22;20223;-71
2023/09/05 01:55:41;;;;;;;2.43;2.23;;;18.00;99.90;;;;;;4981855;28;20463;-69
2023/09/05 01:58:06;;;;;;;2.20;1.80;;;18.00;99.90;;;;;;5011871;28;20430;-70
2023/09/05 02:00:32;;;;;;;2.70;2.10;;;17.90;99.90;;;;;;5011929;28;20579;-69
2023/09/05 02:02:57;;;;;;;2.57;2.10;;;17.90;99.90;;;;;;5011551;28;20188;-69
2023/09/05 02:05:23;;;;;;;2.47;2.27;;;17.80;99.90;;;;;;5004725;28;20201;-71
2023/09/05 02:07:48;;;;;;;3.43;2.17;;;17.70;99.90;;;;;;4992661;28;20715;-70
2023/09/05 02:10:14;;;;;;;3.20;2.00;;;17.70;99.90;;;;;;4992344;28;20244;-70
2023/09/05 02:12:44;;;;;;;2.10;1.80;;;17.60;99.90;;;;;;4996622;28;20203;-70
2023/09/05 02:15:11;;;;;;;2.03;1.83;;;17.50;99.90;;;;;;5012087;28;20207;-71
2023/09/05 02:17:36;;;;;;;2.47;2.23;;;17.40;99.90;;;;;;5011959;28;21147;-70
2023/09/05 02:20:03;;;;;;;2.40;2.20;;;17.30;99.90;;;;;;5012003;28;20172;-69
2023/09/05 02:22:29;;;;;;;2.27;2.07;;;17.20;99.90;;;;;;5010203;28;20202;-69
2023/09/05 02:24:54;;;;;;;5.60;2.63;;;17.10;99.90;;;;;;5011776;28;20932;-69
2023/09/05 02:27:20;;;;;;;2.30;2.10;;;17.00;99.90;;;;;;5011767;28;20172;-69
2023/09/05 02:29:56;;;;;;;7.63;6.73;;;17.00;99.90;;;;;;5011813;28;20180;-69
2023/09/05 02:32:22;;;;;;;10.03;6.53;;;17.00;99.90;;;;;;5010135;28;20199;-71
2023/09/05 02:34:52;;;;;;;5.10;3.20;;;16.90;99.90;;;;;;5014127;28;20415;-70
2023/09/05 02:37:18;;;;;;;2.80;2.00;;;16.80;99.90;;;;;;5015278;28;20503;-70
2023/09/05 02:39:44;;;;;;;2.97;2.70;;;16.80;99.90;;;;;;5015209;28;20411;-70
2023/09/05 02:42:09;;;;;;;2.27;1.90;;;16.80;99.90;;;;;;5014979;28;20402;-70
2023/09/05 02:44:35;;;;;;;3.53;2.43;;;16.70;99.90;;;;;;4998836;28;20284;-70
2023/09/05 02:47:00;;;;;;;5.57;1.60;;;16.70;99.90;;;;;;4996335;28;20762;-69
2023/09/05 02:49:26;;;;;;;3.03;2.77;;;16.60;99.90;;;;;;4996120;28;20177;-70
2023/09/05 02:51:51;;;;;;;2.17;1.73;;;16.60;99.90;;;;;;5000789;28;20176;-70
2023/09/05 02:54:17;;;;;;;2.30;2.10;;;16.50;99.90;;;;;;4994215;28;20212;-70
2023/09/05 02:56:42;;;;;;;3.10;2.80;;;16.50;99.90;;;;;;4988536;28;20606;-71
2023/09/05 02:59:08;;;;;;;2.33;2.13;;;16.40;99.90;;;;;;4995428;28;20253;-69
2023/09/05 03:01:33;;;;;;;2.77;2.43;;;16.30;99.90;;;;;;4995333;28;20173;-70
2023/09/05 03:03:59;;;;;;;2.07;1.87;;;16.30;99.90;;;;;;4994891;28;20562;-70
2023/09/05 03:06:24;;;;;;;2.93;2.67;;;16.30;99.90;;;;;;4995132;28;20719;-70
2023/09/05 03:08:50;;;;;;;3.13;2.03;;;16.30;99.90;;;;;;4995192;28;20169;-70
2023/09/05 03:11:16;;;;;;;2.13;1.90;;;16.20;99.90;;;;;;4995040;28;20165;-70
2023/09/05 03:13:42;;;;;;;4.33;2.03;;;16.20;99.90;;;;;;4994767;28;20704;-69
2023/09/05 03:16:08;;;;;;;3.70;2.00;;;16.20;99.90;;;;;;4995114;28;20435;-70
2023/09/05 03:18:34;;;;;;;1.87;1.63;;;16.30;99.90;;;;;;4994831;28;20404;-71
2023/09/05 03:20:59;;;;;;;3.20;2.03;;;16.20;99.90;;;;;;4994827;28;20173;-70
2023/09/05 03:23:25;;;;;;;3.13;2.20;;;16.20;99.90;;;;;;4993172;28;20189;-70
2023/09/05 03:25:53;;;;;;;2.60;2.03;;;16.20;99.90;;;;;;4994720;28;20562;-70
2023/09/05 03:28:19;;;;;;;3.33;2.50;;;16.20;99.90;;;;;;4994813;28;20172;-69
2023/09/05 03:30:45;;;;;;;2.27;1.87;;;16.10;99.90;;;;;;4994758;28;20483;-69
2023/09/05 03:33:11;;;;;;;2.63;1.93;;;16.10;99.90;;;;;;4994298;28;20499;-71
2023/09/05 03:35:37;;;;;;;2.90;2.17;;;16.10;99.90;;;;;;4994491;28;20176;-71
2023/09/05 03:38:05;;;;;;;2.60;1.90;;;16.00;99.90;;;;;;4994625;28;20529;-71
2023/09/05 03:40:30;;;;;;;2.13;1.93;;;16.00;99.90;;;;;;5012865;28;20184;-71
2023/09/05 03:42:56;;;;;;;2.10;1.87;;;16.10;99.90;;;;;;5013756;28;20481;-70
2023/09/05 03:45:21;;;;;;;2.60;1.73;;;16.10;99.90;;;;;;4993505;28;20227;-70
2023/09/05 03:47:47;;;;;;;2.47;2.27;;;16.10;99.90;;;;;;4993533;28;20176;-70
2023/09/05 03:50:21;;;;;;;2.70;2.13;;;16.10;99.90;;;;;;5000502;28;20200;-71
2023/09/05 03:52:47;;;;;;;2.47;2.27;;;16.10;99.90;;;;;;4993963;28;20613;-70
2023/09/05 03:55:13;;;;;;;4.00;2.67;;;16.00;99.90;;;;;;4993994;28;20436;-70
2023/09/05 03:57:39;;;;;;;4.27;2.50;;;15.90;99.90;;;;;;4994143;28;20690;-70
2023/09/05 04:00:07;;;;;;;3.40;2.60;;;15.90;99.90;;;;;;4993984;28;20177;-71
2023/09/05 04:02:32;;;;;;;2.40;2.20;;;15.90;99.90;;;;;;4998408;28;20955;-71
2023/09/05 04:04:58;;;;;;;2.50;2.30;;;16.00;99.90;;;;;;4993811;28;20491;-71
2023/09/05 04:07:23;;;;;;;2.00;1.80;;;16.00;99.90;;;;;;5006307;28;20176;-71
2023/09/05 04:09:49;;;;;;;2.77;1.80;;;16.00;99.90;;;;;;5008660;28;20212;-70
2023/09/05 04:12:15;;;;;;;1.90;1.60;;;16.00;99.90;;;;;;5001611;28;20173;-70
2023/09/05 04:14:41;;;;;;;2.13;1.50;;;16.00;99.90;;;;;;4993802;28;20323;-69
2023/09/05 04:17:06;;;;;;;2.97;2.23;;;16.00;99.90;;;;;;4998086;28;20515;-70
2023/09/05 04:19:32;;;;;;;1.90;1.70;;;16.00;99.90;;;;;;4993799;28;20684;-70
2023/09/05 04:21:58;;;;;;;2.37;1.90;;;16.00;99.90;;;;;;5001292;28;20182;-70
2023/09/05 04:24:23;;;;;;;11.47;9.53;;;16.00;99.90;;;;;;5013249;28;20200;-69
2023/09/05 04:26:50;;;;;;;7.53;5.37;;;16.00;99.90;;;;;;4999904;28;20188;-69
2023/09/05 04:29:16;;;;;;;4.17;3.77;;;16.00;99.90;;;;;;5011398;28;20174;-69
2023/09/05 04:31:42;;;;;;;2.87;2.60;;;15.90;99.90;;;;;;5001326;28;20412;-70
2023/09/05 04:34:08;;;;;;;2.73;2.53;;;15.90;99.90;;;;;;5008350;28;20431;-71
2023/09/05 04:36:36;;;;;;;3.60;2.37;;;16.00;99.90;;;;;;5010434;28;20180;-69
2023/09/05 04:39:05;;;;;;;2.37;2.03;;;16.00;99.90;;;;;;5001320;28;20175;-70
2023/09/05 04:41:31;;;;;;;2.27;1.97;;;16.00;99.90;;;;;;5009373;28;20453;-69
2023/09/05 04:43:56;;;;;;;2.13;1.93;;;16.00;99.90;;;;;;4997756;28;20460;-70
2023/09/05 04:46:22;;;;;;;2.90;2.23;;;16.00;99.90;;;;;;4997612;28;20204;-70
2023/09/05 04:48:48;;;;;;;3.70;2.30;;;16.00;99.90;;;;;;5001026;28;20184;-70
2023/09/05 04:51:13;;;;;;;3.00;1.90;;;16.00;99.90;;;;;;5001366;28;20933;-69
2023/09/05 04:53:39;;;;;;;3.57;2.10;;;16.00;99.90;;;;;;4992656;28;20284;-70
2023/09/05 04:56:04;;;;;;;3.10;1.90;;;16.00;99.90;;;;;;4993190;28;20575;-70
2023/09/05 04:58:31;;;;;;;2.47;2.27;;;15.90;99.90;;;;;;4993113;28;20181;-70
2023/09/05 05:01:02;;;;;;;3.00;2.33;;;15.90;99.90;;;;;;4998036;28;20203;-70
2023/09/05 05:03:34;;;;;;;2.47;2.00;;;15.90;99.90;;;;;;5012349;28;20446;-69
2023/09/05 05:06:02;;;;;;;4.30;2.30;;;15.90;99.90;;;;;;5012593;28;20957;-69
2023/09/05 05:08:28;;;;;;;2.73;1.87;;;15.90;99.90;;;;;;4993363;28;20428;-70
2023/09/05 05:10:54;;;;;;;2.77;2.57;;;16.00;99.90;;;;;;4993162;28;20416;-69
2023/09/05 05:13:20;;;;;;;5.50;2.10;;;16.00;99.90;;;;;;4992437;28;20420;-69
2023/09/05 05:15:47;;;;;;;2.23;2.03;;;16.00;99.90;;;;;;4992975;28;20526;-70
2023/09/05 05:18:13;;;;;;;1.70;1.60;;;16.00;99.90;;;;;;4992845;28;20408;-70
2023/09/05 05:20:39;;;;;;;2.30;1.77;;;16.10;99.90;;;;;;4992674;28;20416;-70
2023/09/05 05:23:05;;;;;;;3.50;2.07;;;16.10;99.90;;;;;;5006732;28;20489;-71
2023/09/05 05:25:32;;;;;;;2.20;1.97;;;16.20;99.90;;;;;;5002041;28;20208;-70
2023/09/05 05:27:58;;;;;;;3.30;2.53;;;16.20;99.90;;;;;;5006084;28;20411;-70
2023/09/05 05:30:23;;;;;;;5.10;2.67;;;16.30;99.90;;;;;;4994972;28;20419;-70
2023/09/05 05:32:49;;;;;;;3.13;2.23;;;16.40;99.90;;;;;;4992264;28;20219;-70
2023/09/05 05:35:14;;;;;;;2.27;2.07;;;16.60;99.90;;;;;;4992698;28;20655;-70
2023/09/05 05:37:40;;;;;;;3.43;1.77;;;16.90;99.90;;;;;;4992724;28;20173;-70
2023/09/05 05:40:07;;;;;;;3.00;2.00;;;17.00;99.90;;;;;;4992747;28;20721;-70
2023/09/05 05:42:33;;;;;;;8.17;2.23;;;17.20;99.90;;;;;;4992280;28;20169;-69
2023/09/05 05:44:58;;;;;;;4.13;2.00;;;17.40;99.90;;;;;;4997461;28;20525;-70
2023/09/05 05:47:24;;;;;;;2.50;2.30;;;17.40;99.90;;;;;;4989770;28;20192;-71
2023/09/05 05:49:50;;;;;;;3.07;2.60;;;17.50;99.90;;;;;;4992394;28;20550;-71
2023/09/05 05:52:17;;;;;;;3.80;2.20;;;17.60;99.90;;;;;;4998938;28;20176;-71
2023/09/05 05:54:42;;;;;;;1.80;1.70;;;17.80;99.90;;;;;;5008505;28;20188;-70
2023/09/05 05:57:08;;;;;;;4.33;2.60;;;18.10;99.90;;;;;;5006907;28;20917;-71
2023/09/05 05:59:34;;;;;;;2.10;1.90;;;18.30;99.90;;;;;;5003699;28;20192;-71
2023/09/05 06:01:59;;;;;;;2.57;2.00;;;18.80;99.90;;;;;;4997945;28;20169;-71
2023/09/05 06:04:25;;;;;;;3.37;1.90;;;19.30;99.90;;;;;;5001235;28;20505;-71
2023/09/05 06:06:51;;;;;;;3.30;2.33;;;19.90;99.90;;;;;;5011758;28;20176;-71
2023/09/05 06:09:18;;;;;;;4.20;2.30;;;20.50;99.90;;;;;;4997891;28;20169;-70
2023/09/05 06:11:44;;;;;;;2.80;2.10;;;21.10;99.90;;;;;;5012055;28;20416;-70
2023/09/05 06:14:09;;;;;;;3.90;2.50;;;22.00;99.90;;;;;;5002494;28;20515;-70
2023/09/05 06:16:35;;;;;;;2.30;1.97;;;23.00;99.90;;;;;;4999244;28;20623;-68
2023/09/05 06:19:01;;;;;;;2.40;2.20;;;23.90;99.90;;;;;;5009968;28;20172;-69
2023/09/05 06:21:26;;;;;;;1.93;1.83;;;24.70;99.90;;;;;;5003863;28;20244;-68
2023/09/05 06:23:52;;;;;;;2.70;2.50;;;25.40;99.90;;;;;;4995604;28;20192;-69
2023/09/05 06:26:17;;;;;;;2.10;1.90;;;25.90;99.90;;;;;;4998320;28;20200;-69
2023/09/05 06:28:43;;;;;;;3.03;2.17;;;26.90;97.50;;;;;;5008467;28;20243;-69
2023/09/05 06:31:08;;;;;;;2.40;2.20;;;27.40;92.60;;;;;;4995792;28;20165;-69
2023/09/05 06:33:34;;;;;;;2.47;2.27;;;27.80;88.40;;;;;;4994207;28;20275;-71
2023/09/05 06:36:06;;;;;;;2.33;1.97;;;28.20;81.90;;;;;;4995764;28;20537;-69
2023/09/05 06:38:33;;;;;;;1.97;1.87;;;28.40;78.50;;;;;;4995771;28;20173;-70
2023/09/05 06:41:05;;;;;;;2.13;2.03;;;28.10;76.80;;;;;;4990886;28;20419;-69
2023/09/05 06:43:30;;;;;;;3.03;2.40;;;27.20;75.90;;;;;;4995618;28;20438;-69
2023/09/05 06:46:04;;;;;;;3.50;2.43;;;26.20;78.70;;;;;;4996927;28;20454;-69
2023/09/05 06:48:29;;;;;;;3.07;2.30;;;25.40;84.40;;;;;;5011670;28;20223;-69
2023/09/05 06:50:59;;;;;;;2.30;2.10;;;24.40;90.00;;;;;;5003432;28;20412;-69
2023/09/05 06:53:26;;;;;;;4.27;2.00;;;23.80;93.00;;;;;;4995219;28;20225;-69
2023/09/05 06:55:52;;;;;;;2.13;1.93;;;23.30;97.20;;;;;;5014544;28;20431;-68
2023/09/05 06:58:18;;;;;;;4.60;2.03;;;22.90;99.90;;;;;;5007198;28;20941;-69
2023/09/05 07:00:44;;;;;;;4.30;2.20;;;22.90;99.90;;;;;;5011245;28;20192;-69
2023/09/05 07:03:10;;;;;;;3.03;2.13;;;22.90;99.90;;;;;;5001445;28;20435;-69
2023/09/05 07:05:41;;;;;;;3.10;2.20;;;22.70;99.90;;;;;;5004576;28;20550;-68
2023/09/05 07:08:06;;;;;;;2.90;1.83;;;22.60;99.90;;;;;;5001014;28;20617;-69
2023/09/05 07:10:32;;;;;;;2.23;2.03;;;22.40;99.90;;;;;;5011913;28;20503;-68
2023/09/05 07:12:57;;;;;;;2.23;2.00;;;22.40;99.90;;;;;;5007370;28;20275;-69
2023/09/05 07:15:23;;;;;;;3.83;2.13;;;22.60;99.90;;;;;;4998215;28;20176;-69
2023/09/05 07:17:49;;;;;;;6.37;2.20;;;23.70;99.90;;;;;;4995052;28;20165;-69
2023/09/05 07:20:15;;;;;;;3.70;2.20;;;25.50;99.90;;;;;;4992651;28;20188;-70
2023/09/05 07:22:41;;;;;;;4.23;2.37;;;27.10;96.80;;;;;;4994543;28;20421;-70
2023/09/05 07:25:07;;;;;;;6.40;2.17;;;28.50;87.80;;;;;;4994937;28;20199;-69
2023/09/05 07:27:32;;;;;;;2.20;2.00;;;29.40;75.30;;;;;;4994925;28;20169;-69
2023/09/05 07:29:58;;;;;;;2.10;1.93;;;29.70;68.00;;;;;;4993542;28;20515;-69
2023/09/05 07:32:23;;;;;;;3.53;2.47;;;30.60;64.10;;;;;;4994475;28;20255;-69
2023/09/05 07:34:49;;;;;;;2.67;2.47;;;31.30;60.00;;;;;;4995189;28;20621;-69
2023/09/05 07:37:16;;;;;;;2.60;2.40;;;31.20;57.80;;;;;;5003626;28;20651;-70
2023/09/05 07:39:44;;;;;;;3.20;2.13;;;30.40;57.10;;;;;;5010556;28;20173;-69
2023/09/05 07:42:10;;;;;;;4.23;2.57;;;29.40;58.70;;;;;;4994159;28;20708;-70
2023/09/05 07:44:35;;;;;;;3.07;2.77;;;28.70;58.90;;;;;;5000776;28;21006;-69
2023/09/05 07:47:01;;;;;;;2.63;2.43;;;28.00;62.50;;;;;;4989538;28;20161;-67
2023/09/05 07:49:27;;;;;;;3.50;2.30;;;27.50;65.70;;;;;;5004387;28;20662;-67
2023/09/05 07:51:54;;;;;;;3.00;1.90;;;27.30;66.70;;;;;;5001526;28;20176;-68
2023/09/05 07:54:20;;;;;;;2.60;2.40;;;27.30;67.40;;;;;;4992826;28;20555;-68
2023/09/05 07:56:46;;;;;;;3.93;2.23;;;27.00;65.60;;;;;;4992975;28;20480;-67
2023/09/05 07:59:11;;;;;;;2.30;2.10;;;26.50;67.00;;;;;;4994289;28;20408;-71
2023/09/05 08:01:37;;;;;;;1.90;1.80;;;26.10;70.10;;;;;;4993627;28;20165;-69
2023/09/05 08:04:03;;;;;;;2.43;2.00;;;25.60;75.90;;;;;;4996289;28;20279;-70
2023/09/05 08:06:29;;;;;;;8.00;2.30;;;25.70;78.70;;;;;;5012260;28;20257;-69
2023/09/05 08:08:55;;;;;;;2.13;1.60;;;26.60;77.70;;;;;;5013614;28;20490;-70
2023/09/05 08:11:20;;;;;;;2.13;1.93;;;27.30;73.00;;;;;;5013575;28;20517;-69
2023/09/05 08:13:46;;;;;;;2.20;1.70;;;27.70;68.40;;;;;;5013133;28;20184;-70
2023/09/05 08:16:11;;;;;;;2.70;2.10;;;28.00;65.80;;;;;;5013536;28;20207;-70
2023/09/05 08:18:37;;;;;;;3.13;2.73;;;28.00;66.90;;;;;;5013422;28;20164;-70
2023/09/05 08:21:04;;;;;;;2.13;1.93;;;28.10;67.20;;;;;;5012110;28;20532;-70
2023/09/05 08:23:30;;;;;;;3.33;2.40;;;28.90;65.80;;;;;;5013046;28;20615;-70
2023/09/05 08:25:57;;;;;;;6.00;2.30;;;30.30;63.00;;;;;;5013222;28;20450;-70
2023/09/05 08:28:26;;;;;;;2.63;2.07;;;31.30;57.60;;;;;;5013314;28;20431;-70
2023/09/05 08:30:54;;;;;;;2.27;2.07;;;32.10;55.50;;;;;;5012942;28;20439;-69
2023/09/05 08:33:20;;;;;;;3.37;2.10;;;33.00;53.20;;;;;;5012861;28;20450;-70
2023/09/05 08:35:46;;;;;;;2.23;1.83;;;33.80;50.80;;;;;;5011380;28;20450;-70
2023/09/05 08:38:11;;;;;;;2.57;2.10;;;34.80;48.50;;;;;;4998062;28;20268;-71
2023/09/05 08:40:37;;;;;;;3.43;2.50;;;35.30;45.80;;;;;;5008397;28;20164;-70
2023/09/05 08:43:03;;;;;;;2.37;2.10;;;36.10;44.20;;;;;;5012301;28;20216;-70
2023/09/05 08:45:30;;;;;;;2.67;2.47;;;36.80;44.10;;;;;;4992949;28;20452;-70
2023/09/05 08:47:56;;;;;;;2.77;2.57;;;37.90;42.90;;;;;;4991542;28;20560;-71
2023/09/05 08:50:25;;;;;;;2.70;2.20;;;38.90;39.70;;;;;;5001039;28;20422;-71
2023/09/05 08:52:53;;;;;;;2.30;2.10;;;39.40;38.80;;;;;;5003388;28;20271;-72
2023/09/05 08:55:21;;;;;;;2.73;2.53;;;40.50;38.30;;;;;;4992363;28;20437;-72
2023/09/05 08:57:49;;;;;;;4.27;2.30;;;41.20;35.80;;;;;;5003781;28;21050;-72
2023/09/05 09:00:18;;;;;;;3.40;2.80;;;41.70;33.80;;;;;;4997866;28;20826;-72
2023/09/05 09:02:43;;;;;;;2.50;2.30;;;42.40;34.20;;;;;;4990308;28;20438;-71
2023/09/05 09:05:09;;;;;;;2.20;2.00;;;43.10;32.40;;;;;;4983278;28;20464;-72
2023/09/05 09:07:35;;;;;;;2.53;2.33;;;43.20;31.80;;;;;;4989413;28;20180;-72
2023/09/05 09:10:16;;;;;;;2.50;2.20;;;43.50;30.70;;;;;;4995134;28;20216;-71
2023/09/05 09:12:41;;;;;;;3.93;2.73;;;44.00;30.50;;;;;;4993397;28;20804;-71
2023/09/05 09:15:11;;;;;;;2.90;2.60;;;43.80;29.90;;;;;;4973396;28;20405;-71
2023/09/05 09:17:49;;;;;;;3.77;2.00;;;43.60;29.50;;;;;;4984231;28;20204;-71
2023/09/05 09:20:16;;;;;;;3.13;2.57;;;43.30;29.10;;;;;;4980695;28;20932;-71
2023/09/05 09:22:42;;;;;;;2.43;2.27;;;43.30;30.00;;;;;;4980234;28;20462;-71
2023/09/05 09:25:20;;;;;;;2.23;2.03;;;43.40;28.40;;;;;;4973722;28;20838;-71
2023/09/05 09:27:58;;;;;;;4.10;2.50;;;43.00;28.00;;;;;;4984056;28;20944;-70
2023/09/05 09:30:27;;;;;;;2.50;2.30;;;43.30;29.50;;;;;;4995517;28;20490;-71
2023/09/05 09:32:54;;;;;;;2.40;2.20;;;43.40;28.90;;;;;;4993400;28;20432;-71
2023/09/05 09:35:20;;;;;;;2.60;2.33;;;44.30;29.40;;;;;;4994830;28;20431;-71
2023/09/05 09:37:47;;;;;;;2.00;1.90;;;44.60;28.60;;;;;;4992851;28;20764;-71
2023/09/05 09:40:17;;;;;;;2.30;2.10;;;45.30;28.50;;;;;;5006029;28;20415;-71
2023/09/05 09:42:47;;;;;;;3.07;2.80;;;46.20;27.80;;;;;;5001723;28;20466;-70
2023/09/05 09:45:13;;;;;;;2.87;2.13;;;46.20;26.90;;;;;;4996958;28;20471;-72
2023/09/05 09:47:52;;;;;;;2.50;2.30;;;45.80;26.60;;;;;;4990205;28;20416;-71
2023/09/05 09:50:19;;;;;;;2.70;2.50;;;46.20;26.50;;;;;;4984471;28;20172;-70
2023/09/05 09:52:46;;;;;;;2.30;2.10;;;45.80;25.90;;;;;;4985509;28;20427;-71
2023/09/05 09:55:13;;;;;;;2.60;2.40;;;45.60;26.80;;;;;;4987925;28;20942;-71
2023/09/05 09:58:02;;;;;;;2.40;2.20;;;45.50;26.20;;;;;;4997078;28;20403;-71
2023/09/05 10:00:32;;;;;;;2.50;2.17;;;45.20;26.70;;;;;;4993401;28;20442;-71
2023/09/05 10:03:00;;;;;;;3.70;2.50;;;45.20;26.50;;;;;;4985141;28;20458;-73
2023/09/05 10:05:26;;;;;;;2.07;1.97;;;45.20;26.60;;;;;;4996796;28;20434;-71
2023/09/05 10:07:54;;;;;;;2.60;2.27;;;44.90;26.10;;;;;;4998144;28;21094;-72
2023/09/05 10:10:21;;;;;;;1.70;1.60;;;44.40;26.80;;;;;;4996584;28;20453;-72
2023/09/05 10:12:47;;;;;;;2.07;1.97;;;44.50;27.00;;;;;;4992024;28;20467;-71
2023/09/05 10:15:15;;;;;;;2.27;2.07;;;44.80;26.80;;;;;;4990906;28;20515;-71
2023/09/05 10:17:42;;;;;;;3.90;1.90;;;45.30;27.30;;;;;;5008327;28;20427;-71
2023/09/05 10:20:09;;;;;;;2.40;2.20;;;45.70;26.70;;;;;;5001042;28;20411;-73
2023/09/05 10:22:39;;;;;;;5.60;2.57;;;45.90;26.10;;;;;;4999570;28;20798;-73
2023/09/05 10:25:07;;;;;;;2.80;2.60;;;45.90;25.80;;;;;;4994105;28;20475;-73
2023/09/05 10:27:33;;;;;;;2.50;2.30;;;45.40;25.80;;;;;;4989510;28;20429;-72
2023/09/05 10:29:59;;;;;;;2.67;2.47;;;45.40;27.00;;;;;;4996305;28;20519;-72
2023/09/05 10:32:25;;;;;;;4.30;2.70;;;45.90;26.30;;;;;;5000949;28;20530;-73
2023/09/05 10:34:50;;;;;;;2.23;2.10;;;46.10;25.80;;;;;;5006137;28;20416;-73
2023/09/05 10:37:26;;;;;;;5.07;2.40;;;46.20;26.10;;;;;;5009073;28;20172;-72
2023/09/05 10:39:57;;;;;;;1.80;1.70;;;46.80;26.20;;;;;;5014327;28;20184;-73
2023/09/05 10:42:32;;;;;;;1.87;1.77;;;46.90;26.50;;;;;;5006639;28;20440;-72
2023/09/05 10:45:18;;;;;;;6.20;2.57;;;47.20;25.90;;;;;;4988713;28;20432;-73
2023/09/05 10:47:44;;;;;;;2.50;2.30;;;47.40;25.90;;;;;;5010624;28;20489;-73
2023/09/05 10:50:12;;;;;;;2.77;2.57;;;47.80;25.60;;;;;;5016062;28;20390;-73
2023/09/05 10:52:38;;;;;;;3.00;2.23;;;48.40;25.30;;;;;;5000080;28;20188;-73
2023/09/05 10:55:29;;;;;;;2.23;2.03;;;49.10;24.80;;;;;;5011415;28;20493;-71
2023/09/05 10:57:55;;;;;;;2.53;2.30;;;49.20;24.30;;;;;;5011172;28;20176;-72
2023/09/05 11:00:21;;;;;;;4.63;2.57;;;48.70;24.10;;;;;;4995301;28;20391;-72
2023/09/05 11:02:48;;;;;;;2.23;2.13;;;48.20;24.10;;;;;;4997087;28;20466;-72
2023/09/05 11:05:18;;;;;;;2.07;1.97;;;47.40;24.10;;;;;;5014850;28;20459;-72
2023/09/05 11:07:50;;;;;;;2.03;1.83;;;46.60;24.40;;;;;;5014596;28;20366;-72
2023/09/05 11:10:29;;;;;;;2.23;1.93;;;46.00;24.80;;;;;;5014775;28;20812;-72
2023/09/05 11:13:15;;;;;;;2.40;2.20;;;46.00;25.00;;;;;;5014308;28;20440;-72
2023/09/05 11:15:44;;;;;;;3.43;2.47;;;45.40;25.20;;;;;;5004338;28;20414;-71
2023/09/05 11:18:12;;;;;;;3.33;1.97;;;45.00;25.90;;;;;;5009394;28;20424;-73
2023/09/05 11:20:46;;;;;;;2.40;2.20;;;45.20;25.70;;;;;;5012242;28;20418;-72
2023/09/05 11:23:16;;;;;;;2.10;2.00;;;45.40;26.10;;;;;;5006907;28;20900;-73
2023/09/05 11:25:55;;;;;;;5.83;2.00;;;46.00;26.40;;;;;;5011821;28;20794;-73
2023/09/05 11:28:23;;;;;;;2.50;2.23;;;46.40;25.50;;;;;;4998415;28;20402;-75
2023/09/05 11:30:52;;;;;;;3.30;3.00;;;47.00;26.20;;;;;;5012688;28;20419;-74
2023/09/05 11:33:19;;;;;;;3.03;2.73;;;47.60;25.50;;;;;;5008877;28;20434;-74
2023/09/05 11:35:46;;;;;;;2.20;2.10;;;48.20;25.10;;;;;;5011998;28;20393;-74
2023/09/05 11:38:12;;;;;;;2.43;2.23;;;48.90;25.10;;;;;;5010171;28;20908;-75
2023/09/05 11:40:41;;;;;;;3.20;2.20;;;49.60;24.60;;;;;;5011019;28;20756;-74
2023/09/05 11:43:12;;;;;;;3.00;2.70;;;49.90;24.40;;;;;;5010871;28;20453;-73
2023/09/05 11:45:39;;;;;;;3.23;2.07;;;50.50;24.50;;;;;;4999048;28;20438;-73
2023/09/05 11:48:08;;;;;;;2.90;2.70;;;50.40;23.70;;;;;;4999407;28;20394;-73
2023/09/05 11:50:34;;;;;;;2.23;2.07;;;50.30;23.70;;;;;;5013368;28;20414;-73
2023/09/05 11:53:02;;;;;;;2.40;2.30;;;50.00;24.10;;;;;;5010197;28;20463;-73
2023/09/05 11:55:29;;;;;;;2.13;2.03;;;50.20;23.90;;;;;;4997339;28;20662;-74
2023/09/05 11:57:58;;;;;;;2.40;2.20;;;50.60;24.30;;;;;;5004408;28;20502;-72
2023/09/05 12:00:24;;;;;;;2.43;2.23;;;50.50;23.50;;;;;;5013575;28;20382;-72
2023/09/05 12:02:52;;;;;;;2.60;2.40;;;50.10;23.90;;;;;;5013054;28;20815;-73
2023/09/05 12:05:19;;;;;;;2.10;2.00;;;49.30;23.40;;;;;;5013003;28;20950;-71
2023/09/05 12:07:55;;;;;;;2.60;2.23;;;49.20;23.50;;;;;;4997908;28;20950;-72
2023/09/05 12:10:23;;;;;;;3.53;2.37;;;49.30;24.20;;;;;;4974529;28;20563;-71
2023/09/05 12:12:57;;;;;;;2.40;2.20;;;48.90;23.90;;;;;;4976092;28;20436;-72
2023/09/05 12:15:34;;;;;;;2.47;2.33;;;49.50;24.60;;;;;;4974556;28;20391;-70
2023/09/05 12:18:04;;;;;;;1.80;1.70;;;50.20;24.30;;;;;;4984466;28;20382;-72
2023/09/05 12:20:34;;;;;;;3.97;2.10;;;50.00;23.80;;;;;;4974272;28;20372;-71
2023/09/05 12:23:05;;;;;;;3.50;2.50;;;49.50;23.60;;;;;;4975770;28;20422;-73
2023/09/05 12:25:31;;;;;;;2.33;2.23;;;49.10;23.60;;;;;;4976593;28;20435;-70
2023/09/05 12:28:15;;;;;;;2.37;2.17;;;48.80;24.00;;;;;;4987358;28;20759;-70
2023/09/05 12:30:41;;;;;;;2.30;2.10;;;48.60;23.80;;;;;;4975176;28;20227;-72
2023/09/05 12:33:06;;;;;;;2.30;2.10;;;48.50;23.70;;;;;;4996267;28;20405;-71
2023/09/05 12:35:33;;;;;;;2.57;2.37;;;47.90;24.00;;;;;;5002776;28;20184;-72
2023/09/05 12:38:04;;;;;;;2.33;2.20;;;48.10;23.80;;;;;;5001462;28;20184;-73
2023/09/05 12:40:32;;;;;;;1.83;1.73;;;48.40;24.40;;;;;;4998032;28;20478;-74
2023/09/05 12:42:59;;;;;;;2.03;1.80;;;48.70;24.10;;;;;;5000367;28;20950;-74
2023/09/05 12:45:24;;;;;;;2.60;2.00;;;48.70;24.30;;;;;;4997659;28;20431;-73
2023/09/05 12:47:53;;;;;;;2.77;2.17;;;48.60;23.20;;;;;;4997632;28;20404;-73
2023/09/05 12:50:29;;;;;;;2.30;2.10;;;49.00;23.40;;;;;;4987246;28;20204;-72
2023/09/05 12:52:59;;;;;;;2.20;2.00;;;48.90;23.30;;;;;;4995786;28;20434;-72